Time;durP1;ratioP1;P1;durP2;ratioP2;P2;SDS_P1;SDS_P2;PMS_P1;PMS_P2;Temp;Humidity;BMP_temperature;BMP_pressure;BME280_temperature;BME280_humidity;BME280_pressure;Samples;Min_cycle;Max_cycle;Signal;HPM_P1;HPM_P2
2023/12/27 00:01:58;;;;;;;11.57;3.63;;;;;;;8.67;62.22;102068.63;4990763;28;123973;-74
2023/12/27 00:04:25;;;;;;;12.20;4.03;;;;;;;8.65;61.89;102069.56;4991893;28;115446;-73
2023/12/27 00:06:54;;;;;;;12.80;3.60;;;;;;;8.64;62.29;102073.94;5001715;28;113940;-73
2023/12/27 00:09:23;;;;;;;9.00;3.05;;;;;;;8.61;62.00;102071.38;5006161;28;122328;-73
2023/12/27 00:11:50;;;;;;;11.15;3.80;;;;;;;8.60;61.90;102066.97;5006076;28;124287;-73
2023/12/27 00:14:17;;;;;;;11.02;3.92;;;;;;;8.57;62.05;102062.63;5002674;28;114104;-72
2023/12/27 00:16:44;;;;;;;6.20;2.65;;;;;;;8.55;62.12;102059.16;4997165;28;113838;-73
2023/12/27 00:19:11;;;;;;;13.45;3.80;;;;;;;8.53;62.13;102044.22;5000740;28;125033;-73
2023/12/27 00:21:39;;;;;;;12.82;3.75;;;;;;;8.51;62.03;102046.00;4989202;28;123927;-72
2023/12/27 00:24:06;;;;;;;11.90;2.95;;;;;;;8.50;62.26;102046.94;5001882;28;115465;-72
2023/12/27 00:26:34;;;;;;;7.20;3.33;;;;;;;8.46;62.30;102043.47;4999965;28;114993;-72
2023/12/27 00:29:02;;;;;;;11.93;3.10;;;;;;;8.44;62.32;102044.38;5002888;28;124054;-72
2023/12/27 00:31:30;;;;;;;8.65;3.20;;;;;;;8.39;62.31;102047.94;5002829;28;124206;-72
2023/12/27 00:33:57;;;;;;;13.70;3.50;;;;;;;8.36;62.19;102053.28;4986237;28;114686;-72
2023/12/27 00:36:29;;;;;;;9.75;3.53;;;;;;;8.31;62.20;102044.56;5003957;28;113713;-71
2023/12/27 00:38:59;;;;;;;11.90;3.65;;;;;;;8.28;62.10;102039.31;4987359;28;123776;-72
2023/12/27 00:41:28;;;;;;;9.88;3.88;;;;;;;8.26;62.19;102043.75;5002042;28;124144;-73
2023/12/27 00:43:56;;;;;;;10.30;3.47;;;;;;;8.23;62.14;102041.19;5004126;28;114406;-73
2023/12/27 00:46:23;;;;;;;13.18;3.55;;;;;;;8.20;61.97;102041.22;4993303;28;113481;-73
2023/12/27 00:48:51;;;;;;;10.70;3.38;;;;;;;8.19;62.06;102044.75;5008454;28;124521;-73
2023/12/27 00:51:19;;;;;;;11.32;3.90;;;;;;;8.15;62.30;102053.59;4996366;28;124460;-72
2023/12/27 00:53:48;;;;;;;12.13;3.35;;;;;;;8.11;62.30;102054.56;4989803;28;114527;-72
2023/12/27 00:56:15;;;;;;;8.65;3.40;;;;;;;8.06;62.28;102056.38;5008545;28;113319;-73
2023/12/27 00:58:42;;;;;;;9.77;3.95;;;;;;;8.04;62.17;102050.25;5006348;28;124011;-72
2023/12/27 01:01:11;;;;;;;8.88;3.00;;;;;;;8.02;62.16;102052.03;5008232;28;123861;-73
2023/12/27 01:03:40;;;;;;;11.77;4.15;;;;;;;8.01;62.06;102050.31;4992685;28;113675;-73
2023/12/27 01:06:10;;;;;;;9.57;3.40;;;;;;;7.98;62.51;102046.81;4997666;28;114345;-72
2023/12/27 01:08:38;;;;;;;11.18;4.20;;;;;;;7.96;62.23;102051.22;5007769;28;124124;-73
2023/12/27 01:11:06;;;;;;;11.40;3.33;;;;;;;7.95;62.39;102051.28;4989360;28;122845;-73
2023/12/27 01:13:33;;;;;;;10.13;3.53;;;;;;;7.93;62.26;102048.66;4993293;28;114607;-72
2023/12/27 01:16:01;;;;;;;10.20;3.72;;;;;;;7.91;62.41;102045.19;5005419;28;115054;-73
2023/12/27 01:18:28;;;;;;;9.55;3.65;;;;;;;7.90;62.58;102038.16;4985646;28;123024;-72
2023/12/27 01:20:57;;;;;;;9.95;3.65;;;;;;;7.88;62.58;102045.22;4990846;28;123847;-72
2023/12/27 01:23:24;;;;;;;7.75;3.25;;;;;;;7.87;62.91;102048.72;5006667;28;114718;-73
2023/12/27 01:25:51;;;;;;;8.98;3.28;;;;;;;7.84;62.51;102043.50;4990055;28;113601;-73
2023/12/27 01:28:19;;;;;;;7.95;3.72;;;;;;;7.83;62.55;102047.03;4992937;28;123426;-72
2023/12/27 01:30:46;;;;;;;11.75;4.00;;;;;;;7.80;62.28;102042.69;5003646;28;124281;-72
2023/12/27 01:33:13;;;;;;;8.40;4.10;;;;;;;7.77;62.27;102045.34;4970421;28;113475;-73
2023/12/27 01:35:41;;;;;;;9.40;3.25;;;;;;;7.75;62.62;102059.47;5009188;28;113993;-73
2023/12/27 01:38:08;;;;;;;5.82;2.70;;;;;;;7.71;62.30;102057.78;4996580;28;123004;-72
2023/12/27 01:40:35;;;;;;;8.57;3.63;;;;;;;7.69;62.30;102054.28;4993216;28;122960;-72
2023/12/27 01:43:03;;;;;;;10.13;3.50;;;;;;;7.67;62.47;102045.53;5007782;28;114947;-72
2023/12/27 01:45:30;;;;;;;12.35;3.90;;;;;;;7.65;62.73;102036.72;4997868;28;112723;-73
2023/12/27 01:47:59;;;;;;;6.95;3.50;;;;;;;7.63;62.53;102043.78;4996251;28;123393;-72
2023/12/27 01:50:27;;;;;;;11.05;3.70;;;;;;;7.60;62.38;102037.69;5007894;28;123739;-72
2023/12/27 01:52:57;;;;;;;10.50;4.00;;;;;;;7.59;62.63;102032.41;4994328;28;114715;-72
2023/12/27 01:55:24;;;;;;;8.70;3.72;;;;;;;7.58;62.55;102042.09;4968863;28;113272;-72
2023/12/27 01:57:51;;;;;;;12.25;4.05;;;;;;;7.56;62.51;102038.63;5007719;28;123176;-72
2023/12/27 02:00:18;;;;;;;13.27;4.38;;;;;;;7.55;62.54;102031.63;4997697;28;122830;-72
2023/12/27 02:02:47;;;;;;;9.82;3.20;;;;;;;7.52;62.94;102026.38;5005205;28;115457;-72
2023/12/27 02:05:15;;;;;;;12.57;4.50;;;;;;;7.49;62.66;102034.31;4991954;28;114672;-73
2023/12/27 02:07:46;;;;;;;15.48;4.30;;;;;;;7.48;62.75;102040.50;5005796;28;123590;-73
2023/12/27 02:10:13;;;;;;;13.57;3.90;;;;;;;7.47;62.95;102044.00;5003682;28;124670;-72
2023/12/27 02:12:40;;;;;;;11.70;3.83;;;;;;;7.46;62.96;102042.28;5001987;28;114570;-72
2023/12/27 02:15:08;;;;;;;10.52;3.80;;;;;;;7.46;62.75;102030.84;4995506;28;113636;-73
2023/12/27 02:17:36;;;;;;;11.10;3.97;;;;;;;7.45;62.84;102035.25;5002182;28;123668;-73
2023/12/27 02:20:03;;;;;;;17.00;4.03;;;;;;;7.44;63.07;102028.25;4982497;28;122801;-72
2023/12/27 02:22:33;;;;;;;15.52;4.43;;;;;;;7.43;62.77;102021.22;5003276;28;114581;-73
2023/12/27 02:25:02;;;;;;;11.80;4.05;;;;;;;7.43;62.76;102026.50;4996679;28;114085;-73
2023/12/27 02:27:29;;;;;;;11.73;3.30;;;;;;;7.41;62.94;102017.72;4994553;28;123804;-72
2023/12/27 02:29:56;;;;;;;11.75;4.07;;;;;;;7.40;62.98;102015.97;5007303;28;124943;-72
2023/12/27 02:32:25;;;;;;;9.07;3.75;;;;;;;7.39;62.59;102019.53;5010258;28;114579;-72
2023/12/27 02:34:53;;;;;;;11.60;4.40;;;;;;;7.37;63.20;102019.53;4982486;28;113617;-72
2023/12/27 02:37:21;;;;;;;12.95;3.65;;;;;;;7.38;62.84;102023.03;5010802;28;125098;-72
2023/12/27 02:39:48;;;;;;;11.07;3.72;;;;;;;7.35;62.91;102017.81;4995491;28;123181;-73
2023/12/27 02:42:15;;;;;;;9.02;3.95;;;;;;;7.35;62.86;102017.81;5011163;28;114636;-72
2023/12/27 02:44:43;;;;;;;7.93;3.30;;;;;;;7.36;63.21;102019.53;5011207;28;113995;-72
2023/12/27 02:47:10;;;;;;;11.93;4.00;;;;;;;7.35;63.27;102002.00;4994227;28;124129;-72
2023/12/27 02:49:38;;;;;;;8.80;3.72;;;;;;;7.35;62.91;102002.00;5012049;28;123961;-72
2023/12/27 02:52:05;;;;;;;9.18;3.80;;;;;;;7.34;63.12;102013.44;5009980;28;115327;-72
2023/12/27 02:54:32;;;;;;;8.90;4.10;;;;;;;7.33;63.10;101998.53;5000990;28;114950;-72
2023/12/27 02:57:00;;;;;;;12.68;4.20;;;;;;;7.33;63.19;102001.16;5009433;28;124243;-72
2023/12/27 02:59:27;;;;;;;9.18;4.00;;;;;;;7.35;63.02;101994.09;5012828;28;124152;-72
2023/12/27 03:01:54;;;;;;;11.48;4.03;;;;;;;7.36;63.42;101988.78;4989849;28;113352;-72
2023/12/27 03:04:22;;;;;;;10.35;4.30;;;;;;;7.38;63.41;101986.13;4994720;28;113100;-72
2023/12/27 03:06:50;;;;;;;12.05;4.47;;;;;;;7.39;63.08;101977.34;5007758;28;124658;-72
2023/12/27 03:09:18;;;;;;;12.75;4.43;;;;;;;7.40;63.32;101968.53;5010718;28;124200;-72
2023/12/27 03:11:45;;;;;;;9.52;4.47;;;;;;;7.41;63.05;101978.19;4988267;28;113821;-72
2023/12/27 03:14:14;;;;;;;10.05;4.30;;;;;;;7.41;63.18;101971.16;4990908;28;113444;-72
2023/12/27 03:16:41;;;;;;;12.45;4.70;;;;;;;7.43;63.36;101971.13;5006047;28;124840;-72
2023/12/27 03:19:08;;;;;;;9.75;3.60;;;;;;;7.45;63.18;101971.97;4990323;28;123829;-72
2023/12/27 03:21:36;;;;;;;11.57;4.50;;;;;;;7.47;63.26;101975.47;4993561;28;113164;-72
2023/12/27 03:24:04;;;;;;;14.80;4.72;;;;;;;7.47;63.22;101964.94;5004096;28;114110;-72
2023/12/27 03:26:31;;;;;;;13.85;4.28;;;;;;;7.49;63.41;101957.88;5010338;28;123529;-72
2023/12/27 03:28:59;;;;;;;15.90;4.60;;;;;;;7.50;63.59;101954.34;4987957;28;123332;-72
2023/12/27 03:31:28;;;;;;;11.85;3.75;;;;;;;7.50;63.63;101943.81;4999019;28;114416;-73
2023/12/27 03:33:56;;;;;;;12.30;3.95;;;;;;;7.50;63.49;101943.81;4987023;28;113422;-73
2023/12/27 03:36:26;;;;;;;10.48;4.47;;;;;;;7.53;63.54;101954.28;4991993;28;123635;-73
2023/12/27 03:38:54;;;;;;;13.57;4.57;;;;;;;7.53;63.34;101959.56;5008493;28;123194;-73
2023/12/27 03:41:21;;;;;;;11.82;4.97;;;;;;;7.53;63.58;101954.28;5009566;28;115704;-73
2023/12/27 03:43:49;;;;;;;15.43;4.90;;;;;;;7.55;63.57;101947.25;4993315;28;115155;-73
2023/12/27 03:46:18;;;;;;;20.02;4.43;;;;;;;7.56;63.43;101943.72;4991350;28;123804;-72
2023/12/27 03:48:45;;;;;;;15.30;4.85;;;;;;;7.58;63.56;101935.78;4987907;28;123640;-73
2023/12/27 03:51:12;;;;;;;13.50;5.15;;;;;;;7.59;63.65;101927.84;4993639;28;113729;-73
2023/12/27 03:53:39;;;;;;;18.52;5.72;;;;;;;7.62;63.73;101926.94;5007623;28;114112;-72
2023/12/27 03:56:12;;;;;;;12.40;5.15;;;;;;;7.63;63.56;101922.50;4982881;28;123162;-73
2023/12/27 03:58:43;;;;;;;14.70;4.55;;;;;;;7.64;63.65;101914.59;4988277;28;122907;-72
2023/12/27 04:01:11;;;;;;;15.73;3.95;;;;;;;7.64;63.76;101908.44;5004638;28;114535;-73
2023/12/27 04:03:40;;;;;;;16.33;5.68;;;;;;;7.64;63.71;101909.31;5017029;28;114170;-73
2023/12/27 04:06:08;;;;;;;15.43;5.53;;;;;;;7.63;64.00;101906.69;4991263;28;123891;-73
2023/12/27 04:08:36;;;;;;;15.68;5.28;;;;;;;7.63;63.69;101907.59;5008320;28;123963;-73
2023/12/27 04:11:04;;;;;;;17.13;5.93;;;;;;;7.64;64.05;101909.31;5008422;28;114364;-73
2023/12/27 04:13:32;;;;;;;20.25;5.65;;;;;;;7.67;64.10;101903.16;5012492;28;114523;-73
2023/12/27 04:15:59;;;;;;;13.77;4.68;;;;;;;7.68;63.99;101891.69;5009058;28;124135;-73
2023/12/27 04:18:26;;;;;;;13.57;4.55;;;;;;;7.70;63.85;101876.72;4989787;28;123014;-73
2023/12/27 04:20:54;;;;;;;13.77;5.55;;;;;;;7.71;63.95;101878.47;5004189;28;114281;-73
2023/12/27 04:23:21;;;;;;;10.98;4.28;;;;;;;7.71;64.13;101867.91;5000944;28;113850;-73
2023/12/27 04:25:49;;;;;;;14.70;5.80;;;;;;;7.73;64.07;101856.44;5002794;28;124542;-73
2023/12/27 04:28:16;;;;;;;13.45;5.43;;;;;;;7.75;64.43;101859.06;4994283;28;122981;-74
2023/12/27 04:30:43;;;;;;;11.90;3.95;;;;;;;7.77;64.25;101865.16;4977561;28;114472;-74
2023/12/27 04:33:12;;;;;;;14.18;4.68;;;;;;;7.80;64.41;101868.63;4982605;28;115696;-73
2023/12/27 04:35:40;;;;;;;13.23;4.90;;;;;;;7.85;64.31;101865.91;5008473;28;123941;-73
2023/12/27 04:38:13;;;;;;;18.10;5.57;;;;;;;7.89;64.45;101862.34;4991450;28;123438;-73
2023/12/27 04:40:45;;;;;;;17.42;4.97;;;;;;;7.92;64.42;101867.53;5011400;28;113545;-71
2023/12/27 04:43:13;;;;;;;18.73;5.93;;;;;;;7.96;64.63;101863.94;4969953;28;113408;-73
2023/12/27 04:45:40;;;;;;;13.13;4.50;;;;;;;7.98;64.12;101851.59;4974512;28;123634;-73
2023/12/27 04:48:07;;;;;;;22.52;5.38;;;;;;;8.02;64.30;101851.53;5003661;28;124115;-72
2023/12/27 04:50:35;;;;;;;13.82;4.47;;;;;;;8.04;64.44;101855.03;5009191;28;114171;-72
2023/12/27 04:53:02;;;;;;;17.98;5.80;;;;;;;8.06;64.59;101853.22;5012126;28;114762;-74
2023/12/27 04:55:30;;;;;;;10.90;3.63;;;;;;;8.10;64.49;101839.06;5006207;28;124013;-73
2023/12/27 04:57:57;;;;;;;17.75;5.10;;;;;;;8.12;64.44;101842.59;5006287;28;123761;-73
2023/12/27 05:00:25;;;;;;;15.90;5.45;;;;;;;8.15;64.26;101853.91;4996103;28;113514;-73
2023/12/27 05:02:52;;;;;;;13.32;5.28;;;;;;;8.18;64.40;101847.72;4982837;28;113794;-73
2023/12/27 05:05:20;;;;;;;17.98;5.47;;;;;;;8.21;64.48;101846.78;4994391;28;123262;-73
2023/12/27 05:07:47;;;;;;;17.75;5.68;;;;;;;8.23;64.42;101845.00;4983835;28;122764;-73
2023/12/27 05:10:15;;;;;;;17.63;6.15;;;;;;;8.25;64.50;101833.53;4996985;28;113859;-73
2023/12/27 05:12:42;;;;;;;17.77;5.93;;;;;;;8.27;64.59;101837.00;5002801;28;114380;-73
2023/12/27 05:15:10;;;;;;;15.73;4.63;;;;;;;8.30;64.44;101829.00;5010181;28;123829;-74
2023/12/27 05:17:37;;;;;;;15.10;5.60;;;;;;;8.31;64.41;101825.47;4991809;28;124450;-73
2023/12/27 05:20:05;;;;;;;17.48;6.38;;;;;;;8.33;64.75;101831.59;4987938;28;114738;-73
2023/12/27 05:22:34;;;;;;;13.90;5.53;;;;;;;8.35;64.33;101813.97;5002803;28;112321;-73
2023/12/27 05:25:04;;;;;;;15.80;5.50;;;;;;;8.38;64.72;101813.91;4972277;28;123187;-73
2023/12/27 05:27:32;;;;;;;17.98;5.05;;;;;;;8.39;64.75;101805.06;5003812;28;123752;-73
2023/12/27 05:30:00;;;;;;;13.93;5.47;;;;;;;8.43;64.54;101807.69;4987772;28;114094;-73
2023/12/27 05:32:27;;;;;;;16.95;5.43;;;;;;;8.47;64.56;101814.63;5003767;28;114311;-73
2023/12/27 05:34:55;;;;;;;14.45;5.35;;;;;;;8.50;64.77;101811.94;5003504;28;124145;-73
2023/12/27 05:37:22;;;;;;;15.45;5.95;;;;;;;8.53;64.60;101817.16;5008465;28;124336;-73
2023/12/27 05:39:49;;;;;;;16.55;6.32;;;;;;;8.55;64.53;101815.34;5004057;28;114073;-73
2023/12/27 05:42:16;;;;;;;13.63;4.13;;;;;;;8.59;64.75;101822.31;4996025;28;113887;-73
2023/12/27 05:44:45;;;;;;;13.02;5.18;;;;;;;8.60;64.75;101813.47;4980840;28;124472;-73
2023/12/27 05:47:12;;;;;;;13.98;5.18;;;;;;;8.62;64.68;101801.09;4992836;28;123227;-73
2023/12/27 05:49:40;;;;;;;15.77;5.28;;;;;;;8.64;64.62;101799.31;5006963;28;113969;-74
2023/12/27 05:52:07;;;;;;;11.55;5.20;;;;;;;8.66;64.63;101802.78;5004102;28;113520;-74
2023/12/27 05:54:37;;;;;;;16.45;5.57;;;;;;;8.66;64.77;101797.50;5007716;28;124651;-73
2023/12/27 05:57:04;;;;;;;20.90;5.30;;;;;;;8.68;64.65;101790.44;5000499;28;123685;-73
2023/12/27 05:59:32;;;;;;;12.18;5.00;;;;;;;8.70;64.59;101793.91;4999702;28;114384;-72
2023/12/27 06:01:59;;;;;;;13.43;4.78;;;;;;;8.72;64.65;101792.09;4979684;28;113895;-73
2023/12/27 06:04:28;;;;;;;11.95;5.40;;;;;;;8.75;64.79;101785.88;5008689;28;124411;-72
2023/12/27 06:06:55;;;;;;;19.35;6.10;;;;;;;8.75;64.71;101781.44;4989468;28;124418;-72
2023/12/27 06:09:22;;;;;;;10.52;4.05;;;;;;;8.79;65.04;101786.69;5008702;28;114987;-72
2023/12/27 06:11:50;;;;;;;15.82;5.80;;;;;;;8.82;64.63;101789.25;5007927;28;114872;-72
2023/12/27 06:14:17;;;;;;;18.17;5.72;;;;;;;8.84;64.67;101782.16;4995724;28;124054;-73
2023/12/27 06:16:44;;;;;;;19.95;5.68;;;;;;;8.86;64.58;101777.72;4990662;28;124666;-73
2023/12/27 06:19:12;;;;;;;22.92;5.78;;;;;;;8.88;64.87;101770.63;4993773;28;114071;-74
2023/12/27 06:21:39;;;;;;;11.95;3.78;;;;;;;8.87;64.93;101764.47;5012517;28;113847;-73
2023/12/27 06:24:07;;;;;;;13.52;4.93;;;;;;;8.90;64.90;101763.53;5002856;28;123879;-73
2023/12/27 06:26:34;;;;;;;17.65;5.00;;;;;;;8.91;64.65;101755.56;4992683;28;123984;-73
2023/12/27 06:29:01;;;;;;;17.15;5.22;;;;;;;8.92;64.82;101752.00;4992927;28;113428;-73
2023/12/27 06:31:29;;;;;;;20.90;5.68;;;;;;;8.93;65.00;101752.91;5009617;28;113939;-73
2023/12/27 06:33:56;;;;;;;17.17;5.22;;;;;;;8.94;64.94;101744.06;5010233;28;122357;-73
2023/12/27 06:36:23;;;;;;;9.68;3.80;;;;;;;8.95;64.64;101735.25;5014776;28;124722;-72
2023/12/27 06:38:51;;;;;;;16.25;4.60;;;;;;;8.96;64.93;101731.66;5011487;28;114659;-73
2023/12/27 06:41:18;;;;;;;16.30;4.88;;;;;;;8.98;64.96;101729.84;5000300;28;113999;-73
2023/12/27 06:43:46;;;;;;;11.63;4.65;;;;;;;8.98;64.99;101724.56;5011677;28;123834;-73
2023/12/27 06:46:13;;;;;;;16.30;4.72;;;;;;;8.99;64.96;101721.03;5002322;28;123901;-73
2023/12/27 06:48:41;;;;;;;13.63;4.13;;;;;;;9.01;64.88;101713.94;4997595;28;114355;-73
2023/12/27 06:51:11;;;;;;;13.18;5.03;;;;;;;9.01;65.05;101713.94;5003399;28;114218;-73
2023/12/27 06:53:39;;;;;;;16.77;4.50;;;;;;;9.02;64.94;101702.44;4995193;28;124010;-73
2023/12/27 06:56:06;;;;;;;15.20;4.75;;;;;;;9.04;64.84;101697.13;4995325;28;123073;-73
2023/12/27 06:58:34;;;;;;;15.82;4.35;;;;;;;9.03;64.97;101698.06;5008228;28;115199;-73
2023/12/27 07:01:04;;;;;;;13.38;4.28;;;;;;;9.04;65.38;101691.84;4982795;28;114132;-74
2023/12/27 07:03:33;;;;;;;14.55;3.33;;;;;;;9.03;65.02;101685.72;5013520;28;124097;-73
2023/12/27 07:06:01;;;;;;;14.65;4.78;;;;;;;9.04;64.99;101686.56;5005402;28;123711;-74
2023/12/27 07:08:31;;;;;;;14.45;4.88;;;;;;;9.05;65.29;101689.16;5011910;28;114086;-74
2023/12/27 07:10:58;;;;;;;13.32;4.32;;;;;;;9.06;65.29;101685.63;5006022;28;114317;-74
2023/12/27 07:13:26;;;;;;;19.90;4.70;;;;;;;9.07;65.24;101682.06;5012135;28;124131;-74
2023/12/27 07:15:53;;;;;;;10.32;3.45;;;;;;;9.09;64.98;101684.69;5011820;28;123341;-75
2023/12/27 07:18:21;;;;;;;6.85;2.70;;;;;;;9.10;65.06;101682.00;4996173;28;113729;-74
2023/12/27 07:20:48;;;;;;;12.77;3.60;;;;;;;9.10;65.19;101681.16;5009817;28;113827;-74
2023/12/27 07:23:15;;;;;;;11.75;2.80;;;;;;;9.10;65.06;101676.72;5002769;28;124058;-73
2023/12/27 07:25:42;;;;;;;15.82;4.22;;;;;;;9.11;65.20;101673.16;5008630;28;124518;-73
2023/12/27 07:28:10;;;;;;;16.63;4.18;;;;;;;9.13;65.36;101671.34;5007184;28;114468;-73
2023/12/27 07:30:37;;;;;;;16.67;4.43;;;;;;;9.14;65.20;101673.09;4997668;28;113807;-74
2023/12/27 07:33:05;;;;;;;12.40;3.72;;;;;;;9.16;65.27;101668.63;5011807;28;124546;-73
2023/12/27 07:35:32;;;;;;;11.48;3.90;;;;;;;9.19;65.10;101664.16;5008286;28;124045;-73
2023/12/27 07:38:00;;;;;;;13.52;3.92;;;;;;;9.21;65.53;101667.63;5011641;28;113846;-73
2023/12/27 07:40:28;;;;;;;14.57;3.92;;;;;;;9.23;65.46;101660.53;5012159;28;113834;-74
2023/12/27 07:42:55;;;;;;;10.95;3.92;;;;;;;9.24;65.36;101659.63;5005091;28;124688;-73
2023/12/27 07:45:23;;;;;;;14.00;3.95;;;;;;;9.26;65.50;101663.09;4994924;28;123138;-74
2023/12/27 07:47:50;;;;;;;12.88;4.35;;;;;;;9.26;65.47;101661.31;5010723;28;115598;-73
2023/12/27 07:50:17;;;;;;;10.68;3.30;;;;;;;9.29;65.68;101666.53;4994116;28;115385;-74
2023/12/27 07:52:44;;;;;;;13.45;3.70;;;;;;;9.29;65.32;101665.69;5001106;28;123787;-73
2023/12/27 07:55:14;;;;;;;10.57;3.47;;;;;;;9.30;65.55;101667.41;4984330;28;124872;-73
2023/12/27 07:57:45;;;;;;;6.40;3.08;;;;;;;9.31;65.43;101663.84;5008991;28;114540;-73
2023/12/27 08:00:15;;;;;;;10.20;4.25;;;;;;;9.33;65.71;101667.31;4996194;28;114361;-73
2023/12/27 08:02:42;;;;;;;7.75;3.88;;;;;;;9.35;65.94;101666.38;5001899;28;123976;-74
2023/12/27 08:05:10;;;;;;;7.60;3.72;;;;;;;9.37;65.61;101658.41;4993988;28;123201;-73
2023/12/27 08:07:38;;;;;;;9.00;4.35;;;;;;;9.40;65.69;101658.31;5009108;28;114184;-73
2023/12/27 08:10:06;;;;;;;8.40;3.17;;;;;;;9.42;65.93;101656.50;4993301;28;114107;-72
2023/12/27 08:12:33;;;;;;;8.93;3.83;;;;;;;9.46;65.84;101658.16;4988481;28;123324;-73
2023/12/27 08:15:01;;;;;;;9.70;3.60;;;;;;;9.50;65.95;101653.66;5000339;28;123393;-73
2023/12/27 08:17:28;;;;;;;8.13;3.72;;;;;;;9.53;65.69;101649.16;4988970;28;113940;-72
2023/12/27 08:19:55;;;;;;;9.27;4.63;;;;;;;9.57;65.90;101654.34;4985739;28;113347;-72
2023/12/27 08:22:22;;;;;;;7.50;4.13;;;;;;;9.58;65.96;101656.09;4995350;28;124439;-72
2023/12/27 08:24:50;;;;;;;11.63;4.60;;;;;;;9.62;65.91;101655.94;4997368;28;123862;-71
2023/12/27 08:27:17;;;;;;;8.55;3.92;;;;;;;9.66;65.80;101654.06;4999797;28;114387;-72
2023/12/27 08:29:44;;;;;;;6.78;3.35;;;;;;;9.67;66.09;101650.53;4989966;28;113563;-71
2023/12/27 08:32:11;;;;;;;9.32;3.90;;;;;;;9.70;65.80;101650.44;4998709;28;124214;-72
2023/12/27 08:34:39;;;;;;;9.30;4.03;;;;;;;9.72;65.74;101643.34;4995998;28;123903;-72
2023/12/27 08:37:06;;;;;;;8.55;3.13;;;;;;;9.75;66.06;101638.81;5005245;28;115147;-73
2023/12/27 08:39:33;;;;;;;11.23;5.00;;;;;;;9.79;65.82;101638.72;4991648;28;115238;-73
2023/12/27 08:42:01;;;;;;;6.63;4.13;;;;;;;9.81;65.94;101621.88;4996425;28;124462;-73
2023/12/27 08:44:46;;;;;;;11.38;5.07;;;;;;;9.85;65.99;101618.25;4991953;28;124678;-72
2023/12/27 08:47:14;;;;;;;7.75;4.50;;;;;;;9.87;66.28;101621.72;5008982;28;115707;-73
2023/12/27 08:49:43;;;;;;;9.13;4.80;;;;;;;9.92;66.25;101608.34;4982494;28;114350;-74
2023/12/27 08:52:11;;;;;;;11.98;3.88;;;;;;;9.96;66.27;101603.84;5005354;28;123962;-73
2023/12/27 08:54:40;;;;;;;6.07;3.95;;;;;;;9.98;66.16;101596.72;4988214;28;122538;-73
2023/12/27 08:57:07;;;;;;;7.75;3.95;;;;;;;10.02;66.06;101588.66;5003718;28;113244;-74
2023/12/27 08:59:40;;;;;;;10.07;4.43;;;;;;;10.06;66.31;101584.13;4997947;28;114077;-73
2023/12/27 09:02:08;;;;;;;5.25;3.47;;;;;;;10.10;66.22;101585.75;5004022;28;123637;-74
2023/12/27 09:04:35;;;;;;;9.52;5.00;;;;;;;10.13;66.48;101569.78;4994854;28;123769;-73
2023/12/27 09:07:02;;;;;;;9.90;5.65;;;;;;;10.17;66.52;101565.25;4991726;28;113775;-73
2023/12/27 09:09:30;;;;;;;9.50;5.00;;;;;;;10.21;66.49;101581.00;4989951;28;113091;-74
2023/12/27 09:11:59;;;;;;;9.65;4.72;;;;;;;10.25;66.55;101563.25;5003689;28;124566;-73
2023/12/27 09:14:26;;;;;;;10.70;5.47;;;;;;;10.28;66.70;101558.72;4996443;28;124522;-73
2023/12/27 09:16:54;;;;;;;9.98;5.45;;;;;;;10.32;66.68;101560.38;4983926;28;113575;-73
2023/12/27 09:19:23;;;;;;;9.40;5.53;;;;;;;10.36;66.62;101553.19;4982530;28;114656;-74
2023/12/27 09:21:50;;;;;;;9.38;5.72;;;;;;;10.40;66.56;101560.13;4996529;28;124907;-73
2023/12/27 09:24:19;;;;;;;12.57;5.97;;;;;;;10.45;66.60;101565.25;5002558;28;124064;-74
2023/12/27 09:26:48;;;;;;;11.10;5.78;;;;;;;10.50;66.79;101547.44;5006100;28;115013;-74
2023/12/27 09:29:15;;;;;;;8.43;4.30;;;;;;;10.53;66.68;101547.34;5009587;28;115119;-74
2023/12/27 09:31:43;;;;;;;7.90;4.13;;;;;;;10.59;66.79;101568.31;4990057;28;124475;-74
2023/12/27 09:34:11;;;;;;;6.80;4.28;;;;;;;10.64;66.83;101555.78;5009675;28;124149;-74
2023/12/27 09:36:38;;;;;;;8.25;4.30;;;;;;;10.68;66.46;101552.13;5006355;28;113789;-74
2023/12/27 09:39:06;;;;;;;8.45;4.95;;;;;;;10.75;66.55;101546.59;5006025;28;113775;-74
2023/12/27 09:41:33;;;;;;;13.52;4.88;;;;;;;10.79;66.73;101542.91;5001468;28;124116;-74
2023/12/27 09:44:04;;;;;;;9.52;4.72;;;;;;;10.83;66.73;101544.53;5007815;28;123867;-73
2023/12/27 09:46:31;;;;;;;8.57;4.38;;;;;;;10.86;66.71;101533.84;4995308;28;114911;-74
2023/12/27 09:48:59;;;;;;;7.63;4.80;;;;;;;10.89;66.79;101539.06;5008913;28;115172;-74
2023/12/27 09:51:28;;;;;;;10.63;4.65;;;;;;;10.91;66.84;101531.91;5008341;28;124128;-73
2023/12/27 09:53:55;;;;;;;8.55;4.35;;;;;;;10.95;66.73;101514.97;5006649;28;123956;-74
2023/12/27 09:56:23;;;;;;;7.65;4.15;;;;;;;10.97;66.62;101531.69;5012430;28;115037;-73
2023/12/27 09:58:58;;;;;;;11.93;4.43;;;;;;;11.02;66.90;101523.56;5000031;28;113469;-73
2023/12/27 10:01:25;;;;;;;9.70;4.20;;;;;;;11.03;66.87;101514.69;4995739;28;124238;-74
2023/12/27 10:04:11;;;;;;;6.60;3.80;;;;;;;11.08;66.81;101523.34;5008059;28;123847;-74
2023/12/27 10:06:43;;;;;;;11.45;4.88;;;;;;;11.10;67.09;101517.06;5007439;28;115581;-74
2023/12/27 10:09:11;;;;;;;6.65;3.47;;;;;;;11.14;66.81;101527.56;4997260;28;114583;-74
2023/12/27 10:11:44;;;;;;;6.07;3.67;;;;;;;11.16;66.63;101525.72;5010607;28;125039;-73
2023/12/27 10:14:13;;;;;;;6.90;3.45;;;;;;;11.19;66.92;101526.47;5006576;28;124092;-73
2023/12/27 10:16:40;;;;;;;7.32;3.28;;;;;;;11.22;66.82;101529.00;5003792;28;114342;-74
2023/12/27 10:19:07;;;;;;;7.05;3.53;;;;;;;11.27;66.86;101512.94;5007564;28;115081;-74
2023/12/27 10:21:41;;;;;;;7.70;3.55;;;;;;;11.30;66.91;101523.41;4997579;28;123806;-74
2023/12/27 10:24:12;;;;;;;6.72;3.50;;;;;;;11.34;66.85;101519.75;4988789;28;123206;-74
2023/12/27 10:26:39;;;;;;;6.30;3.40;;;;;;;11.37;66.81;101519.59;4993689;28;113747;-74
2023/12/27 10:29:07;;;;;;;6.20;3.97;;;;;;;11.42;66.83;101501.75;5005874;28;114120;-74
2023/12/27 10:31:35;;;;;;;7.65;3.30;;;;;;;11.44;66.91;101497.25;5006924;28;123858;-74
2023/12/27 10:34:03;;;;;;;7.82;3.42;;;;;;;11.46;67.27;101503.34;5008583;28;123846;-74
2023/12/27 10:36:31;;;;;;;7.53;3.65;;;;;;;11.49;66.83;101487.34;5010050;28;115356;-74
2023/12/27 10:39:04;;;;;;;5.07;3.33;;;;;;;11.53;66.84;101481.88;5008788;28;114167;-74
2023/12/27 10:41:33;;;;;;;7.22;3.60;;;;;;;11.55;66.71;101485.38;4990392;28;124197;-75
2023/12/27 10:44:00;;;;;;;5.20;2.97;;;;;;;11.57;66.69;101479.06;4992220;28;123185;-74
2023/12/27 10:46:28;;;;;;;7.07;3.17;;;;;;;11.58;66.92;101459.56;4989608;28;114050;-75
2023/12/27 10:48:58;;;;;;;6.07;3.22;;;;;;;11.61;66.81;101455.94;5000285;28;114460;-75
2023/12/27 10:51:28;;;;;;;6.65;3.28;;;;;;;11.66;66.88;101456.63;4989132;28;122940;-75
2023/12/27 10:54:00;;;;;;;5.97;2.88;;;;;;;11.67;66.88;101453.03;4996888;28;124985;-75
2023/12/27 10:56:39;;;;;;;8.20;3.10;;;;;;;11.69;66.85;101452.03;4995144;28;113620;-76
2023/12/27 10:59:07;;;;;;;5.65;3.20;;;;;;;11.74;66.84;101449.22;5008152;28;115143;-76
2023/12/27 11:01:37;;;;;;;8.80;2.92;;;;;;;11.76;66.75;101446.50;5005911;28;124527;-76
2023/12/27 11:04:07;;;;;;;7.35;3.28;;;;;;;11.77;66.81;101443.81;4992994;28;124049;-76
2023/12/27 11:06:39;;;;;;;7.72;3.30;;;;;;;11.81;66.92;101445.41;5009882;28;115824;-75
2023/12/27 11:09:07;;;;;;;5.45;3.22;;;;;;;11.82;66.77;101436.50;5011189;28;115901;-76
2023/12/27 11:11:39;;;;;;;5.18;3.05;;;;;;;11.84;66.78;101429.31;5004966;28;123923;-76
2023/12/27 11:14:13;;;;;;;8.77;3.40;;;;;;;11.87;66.78;101421.25;5001953;28;124118;-76
2023/12/27 11:16:47;;;;;;;6.68;3.28;;;;;;;11.92;66.78;101414.91;5000925;28;114359;-76
2023/12/27 11:19:15;;;;;;;6.00;3.67;;;;;;;11.96;66.77;101422.72;5009602;28;113913;-76
2023/12/27 11:21:43;;;;;;;5.97;3.20;;;;;;;11.99;66.79;101414.59;5009429;28;124505;-76
2023/12/27 11:24:10;;;;;;;4.70;2.88;;;;;;;12.03;66.78;101412.69;5005000;28;124043;-76